createdAt,value
2022-09-01T00:00:11.104Z,3.43
2022-09-01T00:01:47.497Z,3.20
2022-09-01T00:03:23.705Z,3.20
2022-09-01T00:04:58.661Z,2.87
2022-09-01T00:06:34.573Z,2.97
2022-09-01T00:08:07.300Z,3.00
2022-09-01T00:09:40.817Z,3.10
2022-09-01T00:11:13.548Z,3.13
2022-09-01T00:12:46.285Z,3.17
2022-09-01T00:14:24.814Z,3.17
2022-09-01T00:16:04.299Z,3.30
2022-09-01T00:17:38.489Z,2.87
2022-09-01T00:19:11.212Z,3.17
2022-09-01T00:20:44.504Z,3.20
2022-09-01T00:22:17.537Z,3.20
2022-09-01T00:23:50.363Z,2.73
2022-09-01T00:25:24.696Z,2.80
2022-09-01T00:26:58.161Z,3.17
2022-09-01T00:28:30.928Z,2.90
2022-09-01T00:30:03.861Z,3.40
2022-09-01T00:31:36.085Z,3.17
2022-09-01T00:33:10.160Z,3.10
2022-09-01T00:34:42.898Z,3.17
2022-09-01T00:36:16.081Z,2.90
2022-09-01T00:37:48.825Z,3.20
2022-09-01T00:39:21.569Z,3.07
2022-09-01T00:40:54.860Z,3.30
2022-09-01T00:42:27.830Z,2.90
2022-09-01T00:44:05.362Z,2.83
2022-09-01T00:45:38.084Z,2.90
2022-09-01T00:47:10.863Z,3.00
2022-09-01T00:48:44.087Z,2.90
2022-09-01T00:50:19.283Z,2.90
2022-09-01T00:51:55.855Z,3.00
2022-09-01T00:53:28.874Z,2.80
2022-09-01T00:55:08.422Z,2.60
2022-09-01T00:56:46.583Z,2.80
2022-09-01T00:58:22.593Z,2.70
2022-09-01T00:59:58.781Z,3.00
2022-09-01T01:01:31.577Z,3.10
2022-09-01T01:03:04.390Z,2.93
2022-09-01T01:04:38.685Z,2.80
2022-09-01T01:06:13.581Z,2.83
2022-09-01T01:07:48.089Z,2.57
2022-09-01T01:09:22.986Z,3.00
2022-09-01T01:10:54.760Z,2.73
2022-09-01T01:12:30.794Z,3.17
2022-09-01T01:14:12.154Z,2.57
2022-09-01T01:15:45.679Z,2.57
2022-09-01T01:17:19.454Z,2.70
2022-09-01T01:18:52.360Z,2.60
2022-09-01T01:20:46.567Z,2.90
2022-09-01T01:22:44.859Z,2.43
2022-09-01T01:24:26.843Z,2.77
2022-09-01T01:26:01.297Z,2.83
2022-09-01T01:27:33.621Z,2.63
2022-09-01T01:29:12.781Z,3.00
2022-09-01T01:30:49.631Z,3.03
2022-09-01T01:32:22.689Z,2.77
2022-09-01T01:33:58.791Z,2.77
2022-09-01T01:35:33.616Z,2.90
2022-09-01T01:37:06.421Z,3.27
2022-09-01T01:38:39.684Z,3.30
2022-09-01T01:40:15.828Z,2.77
2022-09-01T01:41:50.646Z,2.60
2022-09-01T01:43:24.271Z,2.50
2022-09-01T01:44:57.286Z,2.63
2022-09-01T01:46:30.087Z,2.90
2022-09-01T01:48:08.454Z,2.80
2022-09-01T01:49:43.745Z,2.60
2022-09-01T01:51:20.049Z,2.60
2022-09-01T01:52:58.127Z,2.80
2022-09-01T01:54:32.669Z,2.50
2022-09-01T01:56:08.939Z,2.37
2022-09-01T01:57:41.704Z,2.67
2022-09-01T01:59:15.364Z,2.60
2022-09-01T02:00:49.560Z,2.77
2022-09-01T02:02:22.332Z,2.73
2022-09-01T02:03:55.629Z,2.87
2022-09-01T02:05:32.673Z,2.73
2022-09-01T02:07:06.309Z,2.63
2022-09-01T02:08:41.101Z,2.70
2022-09-01T02:10:14.025Z,2.40
2022-09-01T02:11:48.182Z,2.60
2022-09-01T02:13:25.147Z,2.67
2022-09-01T02:15:00.870Z,2.37
2022-09-01T02:16:34.936Z,2.60
2022-09-01T02:18:07.729Z,2.40
2022-09-01T02:19:41.659Z,2.57
2022-09-01T02:21:19.584Z,2.80
2022-09-01T02:22:55.326Z,2.93
2022-09-01T02:24:31.881Z,2.50
2022-09-01T02:26:16.201Z,2.50
2022-09-01T02:27:53.325Z,2.83
2022-09-01T02:29:28.814Z,2.80
2022-09-01T02:31:03.794Z,2.77
2022-09-01T02:32:37.121Z,2.73
2022-09-01T02:34:11.369Z,2.63
2022-09-01T02:35:44.288Z,2.70
2022-09-01T02:37:16.087Z,2.90
2022-09-01T02:38:53.047Z,2.63
2022-09-01T02:40:27.978Z,2.87
2022-09-01T02:42:01.379Z,3.13
2022-09-01T02:43:35.485Z,3.23
2022-09-01T02:45:15.656Z,2.80
2022-09-01T02:46:50.122Z,3.00
2022-09-01T02:48:26.451Z,3.00
2022-09-01T02:50:01.817Z,2.80
2022-09-01T02:51:34.569Z,3.07
2022-09-01T02:53:09.664Z,3.10
2022-09-01T02:54:45.445Z,2.77
2022-09-01T02:56:18.198Z,2.80
2022-09-01T02:57:52.260Z,2.70
2022-09-01T02:59:29.780Z,2.97
2022-09-01T03:01:01.554Z,2.80
2022-09-01T03:02:36.757Z,3.00
2022-09-01T03:04:10.097Z,2.80
2022-09-01T03:05:41.859Z,3.10
2022-09-01T03:07:14.735Z,2.63
2022-09-01T03:08:47.123Z,2.90
2022-09-01T03:10:21.407Z,3.03
2022-09-01T03:11:57.431Z,3.03
2022-09-01T03:13:30.472Z,3.00
2022-09-01T03:15:06.398Z,2.80
2022-09-01T03:16:41.177Z,2.60
2022-09-01T03:18:15.598Z,2.53
2022-09-01T03:19:48.712Z,2.57
2022-09-01T03:21:23.268Z,2.70
2022-09-01T03:22:57.808Z,3.00
2022-09-01T03:24:30.730Z,2.70
2022-09-01T03:26:02.872Z,2.80
2022-09-01T03:27:35.584Z,2.83
2022-09-01T03:29:09.490Z,3.20
2022-09-01T03:30:48.977Z,2.40
2022-09-01T03:32:21.706Z,2.80
2022-09-01T03:33:56.990Z,2.93
2022-09-01T03:35:31.816Z,3.23
2022-09-01T03:37:07.935Z,2.70
2022-09-01T03:38:39.717Z,2.70
2022-09-01T03:40:13.886Z,2.70
2022-09-01T03:41:46.637Z,2.60
2022-09-01T03:43:23.381Z,2.53
2022-09-01T03:44:56.664Z,2.93
2022-09-01T03:46:36.313Z,2.70
2022-09-01T03:48:10.712Z,2.73
2022-09-01T03:49:43.529Z,2.90
2022-09-01T03:51:15.740Z,2.90
2022-09-01T03:52:49.761Z,3.00
2022-09-01T03:54:24.832Z,2.83
2022-09-01T03:55:58.801Z,2.90
2022-09-01T03:57:32.522Z,2.90
2022-09-01T03:59:04.804Z,2.67
2022-09-01T04:00:47.735Z,2.90
2022-09-01T04:02:23.143Z,2.83
2022-09-01T04:03:57.948Z,2.40
2022-09-01T04:05:33.810Z,3.10
2022-09-01T04:07:07.392Z,2.90
2022-09-01T04:08:40.581Z,3.00
2022-09-01T04:10:13.877Z,3.07
2022-09-01T04:11:46.887Z,3.20
2022-09-01T04:13:21.937Z,2.80
2022-09-01T04:14:54.654Z,3.00
2022-09-01T04:16:47.432Z,3.00
2022-09-01T04:18:21.437Z,3.13
2022-09-01T04:19:54.355Z,3.10
2022-09-01T04:21:27.112Z,3.23
2022-09-01T04:22:59.842Z,3.03
2022-09-01T04:24:34.385Z,2.80
2022-09-01T04:26:10.043Z,2.90
2022-09-01T04:27:42.978Z,2.80
2022-09-01T04:29:18.556Z,3.40
2022-09-01T04:30:55.813Z,3.00
2022-09-01T04:32:28.742Z,2.80
2022-09-01T04:34:02.806Z,3.00
2022-09-01T04:35:39.033Z,2.87
2022-09-01T04:37:14.742Z,3.00
2022-09-01T04:38:48.001Z,2.63
2022-09-01T04:40:23.727Z,3.07
2022-09-01T04:42:00.277Z,3.10
2022-09-01T04:43:33.026Z,2.80
2022-09-01T04:45:11.194Z,3.57
2022-09-01T04:46:46.375Z,3.10
2022-09-01T04:48:21.938Z,3.27
2022-09-01T04:49:58.042Z,3.00
2022-09-01T04:51:31.038Z,3.00
2022-09-01T04:53:06.714Z,3.23
2022-09-01T04:54:39.555Z,3.37
2022-09-01T04:56:12.327Z,3.20
2022-09-01T04:57:47.497Z,3.07
2022-09-01T04:59:22.417Z,3.57
2022-09-01T05:00:55.903Z,3.30
2022-09-01T05:02:28.895Z,3.30
2022-09-01T05:04:03.902Z,3.27
2022-09-01T05:05:43.527Z,3.43
2022-09-01T05:07:17.656Z,3.30
2022-09-01T05:08:49.853Z,3.20
2022-09-01T05:10:29.756Z,3.30
2022-09-01T05:12:11.045Z,3.00
2022-09-01T05:13:49.868Z,3.10
2022-09-01T05:15:23.096Z,3.33
2022-09-01T05:16:58.736Z,3.30
2022-09-01T05:18:31.562Z,3.30
2022-09-01T05:20:05.481Z,3.20
2022-09-01T05:21:40.140Z,3.20
2022-09-01T05:23:14.048Z,3.20
2022-09-01T05:24:46.796Z,2.90
2022-09-01T05:26:23.332Z,3.07
2022-09-01T05:27:57.320Z,3.17
2022-09-01T05:29:30.325Z,3.50
2022-09-01T05:31:02.759Z,3.40
2022-09-01T05:32:37.104Z,3.53
2022-09-01T05:34:10.905Z,3.53
2022-09-01T05:35:55.410Z,3.37
2022-09-01T05:37:30.257Z,3.17
2022-09-01T05:39:04.805Z,3.40
2022-09-01T05:40:41.197Z,3.33
2022-09-01T05:42:14.025Z,3.07
2022-09-01T05:43:50.360Z,3.10
2022-09-01T05:45:24.389Z,3.33
2022-09-01T05:46:59.925Z,2.97
2022-09-01T05:48:34.918Z,3.30
2022-09-01T05:50:14.377Z,3.00
2022-09-01T05:51:51.583Z,3.13
2022-09-01T05:53:26.939Z,3.20
2022-09-01T05:55:00.102Z,3.27
2022-09-01T05:56:33.845Z,3.03
2022-09-01T05:58:07.514Z,3.00
2022-09-01T05:59:41.976Z,3.37
2022-09-01T06:01:22.202Z,3.20
2022-09-01T06:02:58.012Z,3.23
2022-09-01T06:04:30.931Z,2.83
2022-09-01T06:06:08.657Z,3.30
2022-09-01T06:07:42.851Z,3.10
2022-09-01T06:09:19.186Z,3.30
2022-09-01T06:10:52.540Z,3.00
2022-09-01T06:12:25.543Z,3.00
2022-09-01T06:13:58.743Z,3.30
2022-09-01T06:15:32.312Z,3.13
2022-09-01T06:17:06.645Z,3.30
2022-09-01T06:18:41.010Z,3.00
2022-09-01T06:20:14.252Z,3.13
2022-09-01T06:21:47.685Z,3.20
2022-09-01T06:23:20.558Z,3.20
2022-09-01T06:25:01.099Z,2.80
2022-09-01T06:26:38.653Z,3.00
2022-09-01T06:28:13.536Z,3.30
2022-09-01T06:29:47.818Z,2.83
2022-09-01T06:31:23.763Z,3.10
2022-09-01T06:32:57.018Z,3.17
2022-09-01T06:34:29.808Z,3.27
2022-09-01T06:36:03.864Z,3.00
2022-09-01T06:37:38.458Z,3.13
2022-09-01T06:39:19.502Z,3.20
2022-09-01T06:41:01.154Z,3.10
2022-09-01T06:42:35.222Z,3.17
2022-09-01T06:44:13.875Z,3.30
2022-09-01T06:45:49.816Z,3.20
2022-09-01T06:47:22.563Z,3.17
2022-09-01T06:48:58.829Z,3.30
2022-09-01T06:52:24.442Z,3.10
2022-09-01T06:53:59.193Z,3.10
2022-09-01T06:55:33.932Z,3.27
2022-09-01T06:59:05.874Z,2.83
2022-09-01T07:00:42.118Z,3.03
2022-09-01T07:02:17.841Z,3.00
2022-09-01T07:03:52.600Z,2.90
2022-09-01T07:09:20.044Z,2.80
2022-09-01T07:16:52.120Z,2.80
2022-09-01T07:18:28.909Z,2.70
2022-09-01T07:22:35.177Z,3.00
2022-09-01T07:24:08.510Z,2.70
2022-09-01T07:27:40.469Z,2.50
2022-09-01T07:29:15.576Z,2.90
2022-09-01T07:30:50.247Z,2.47
2022-09-01T07:36:25.700Z,2.70
2022-09-01T07:39:52.025Z,3.27
2022-09-01T07:43:27.205Z,3.13
2022-09-01T07:45:25.913Z,3.00
2022-09-01T07:49:02.824Z,3.13
2022-09-01T07:50:40.977Z,2.80
2022-09-01T07:52:31.396Z,2.80
2022-09-01T07:54:05.012Z,3.30
2022-09-01T07:55:41.204Z,2.80
2022-09-01T07:57:14.976Z,3.20
2022-09-01T07:58:49.049Z,3.07
2022-09-01T08:00:23.268Z,3.17
2022-09-01T08:02:05.546Z,3.03
2022-09-01T08:03:39.888Z,2.97
2022-09-01T08:05:17.781Z,3.10
2022-09-01T08:06:50.550Z,2.93
2022-09-01T08:08:28.782Z,3.43
2022-09-01T08:10:02.109Z,3.10
2022-09-01T08:11:58.606Z,2.83
2022-09-01T08:13:28.207Z,2.67
2022-09-01T08:16:56.793Z,2.90
2022-09-01T08:18:48.102Z,3.00
2022-09-01T08:20:21.503Z,2.57
2022-09-01T08:21:54.235Z,3.00
2022-09-01T08:23:27.297Z,3.27
2022-09-01T08:25:00.021Z,3.03
2022-09-01T08:26:32.761Z,3.17
2022-09-01T08:28:06.572Z,2.97
2022-09-01T08:29:39.297Z,2.40
2022-09-01T08:31:15.367Z,2.77
2022-09-01T08:32:49.547Z,2.70
2022-09-01T08:34:22.397Z,2.87
2022-09-01T08:35:57.012Z,3.10
2022-09-01T08:37:29.866Z,2.87
2022-09-01T08:39:02.584Z,2.80
2022-09-01T08:40:35.846Z,3.10
2022-09-01T08:42:18.897Z,2.90
2022-09-01T08:44:01.472Z,2.97
2022-09-01T08:45:39.100Z,2.90
2022-09-01T08:47:15.389Z,3.20
2022-09-01T08:50:55.351Z,2.80
2022-09-01T08:52:31.624Z,2.87
2022-09-01T08:54:10.896Z,2.70
2022-09-01T08:55:47.988Z,2.70
2022-09-01T08:57:24.134Z,2.70
2022-09-01T08:58:56.896Z,2.73
2022-09-01T09:00:33.356Z,2.70
2022-09-01T09:02:22.197Z,2.87
2022-09-01T09:04:12.533Z,3.10
2022-09-01T09:05:58.540Z,3.00
2022-09-01T09:07:50.742Z,2.90
2022-09-01T09:09:34.023Z,2.90
2022-09-01T09:11:16.746Z,3.00
2022-09-01T09:13:08.266Z,2.90
2022-09-01T09:14:57.588Z,3.10
2022-09-01T09:16:36.664Z,2.70
2022-09-01T09:18:39.314Z,2.27
2022-09-01T09:20:14.368Z,2.73
2022-09-01T09:21:48.833Z,2.73
2022-09-01T09:23:30.161Z,3.10
2022-09-01T09:25:09.118Z,2.63
2022-09-01T09:26:43.209Z,2.50
2022-09-01T09:28:16.034Z,2.67
2022-09-01T09:29:52.199Z,2.80
2022-09-01T09:31:36.542Z,2.60
2022-09-01T09:33:46.671Z,2.57
2022-09-01T09:35:22.854Z,2.63
2022-09-01T09:36:57.359Z,3.00
2022-09-01T09:38:33.299Z,2.90
2022-09-01T09:40:11.710Z,3.00
2022-09-01T09:42:01.320Z,3.00
2022-09-01T09:43:37.416Z,3.40
2022-09-01T09:45:23.462Z,2.90
2022-09-01T09:46:57.525Z,2.97
2022-09-01T09:48:34.089Z,2.97
2022-09-01T09:50:17.921Z,3.00
2022-09-01T09:51:58.695Z,2.90
2022-09-01T09:53:33.041Z,3.13
2022-09-01T09:55:19.116Z,3.00
2022-09-01T09:57:06.240Z,3.10
2022-09-01T09:58:42.833Z,3.60
2022-09-01T10:00:23.893Z,3.20
2022-09-01T10:01:59.848Z,2.97
2022-09-01T10:03:38.716Z,3.20
2022-09-01T10:05:27.723Z,2.80
2022-09-01T10:07:01.778Z,2.87
2022-09-01T10:08:44.808Z,3.40
2022-09-01T10:10:30.853Z,3.00
2022-09-01T10:12:05.482Z,2.70
2022-09-01T10:13:38.301Z,3.40
2022-09-01T10:15:14.103Z,3.20
2022-09-01T10:16:52.517Z,3.23
2022-09-01T10:18:30.663Z,3.50
2022-09-01T10:20:08.149Z,3.00
2022-09-01T10:21:46.627Z,3.10
2022-09-01T10:23:20.773Z,3.17
2022-09-01T10:24:53.627Z,3.07
2022-09-01T10:26:30.844Z,2.90
2022-09-01T10:28:22.071Z,2.90
2022-09-01T10:30:18.091Z,3.13
2022-09-01T10:32:08.569Z,3.00
2022-09-01T10:33:44.902Z,2.80
2022-09-01T10:35:23.671Z,2.90
2022-09-01T10:36:57.102Z,2.60
2022-09-01T10:38:32.061Z,3.10
2022-09-01T10:40:20.526Z,3.00
2022-09-01T10:42:00.050Z,2.90
2022-09-01T10:43:44.061Z,2.90
2022-09-01T10:45:31.906Z,3.00
2022-09-01T10:47:13.502Z,2.70
2022-09-01T10:48:55.724Z,2.70
2022-09-01T10:50:35.419Z,2.70
2022-09-01T10:52:13.187Z,3.00
2022-09-01T10:53:49.167Z,2.90
2022-09-01T10:55:27.831Z,2.73
2022-09-01T10:57:08.734Z,2.80
2022-09-01T11:03:31.522Z,2.73
2022-09-01T11:05:17.865Z,2.87
2022-09-01T11:07:14.485Z,2.70
2022-09-01T11:09:01.766Z,3.10
2022-09-01T11:10:53.139Z,3.00
2022-09-01T11:12:39.242Z,2.80
2022-09-01T11:14:20.816Z,2.93
2022-09-01T11:15:55.451Z,2.90
2022-09-01T11:17:36.220Z,3.20
2022-09-01T11:19:42.924Z,3.10
2022-09-01T11:21:20.812Z,3.20
2022-09-01T11:23:03.531Z,3.30
2022-09-01T11:24:54.580Z,2.93
2022-09-01T11:26:48.863Z,2.87
2022-09-01T11:28:38.233Z,2.77
2022-09-01T11:30:11.337Z,2.90
2022-09-01T11:31:45.950Z,2.80
2022-09-01T11:33:42.788Z,2.80
2022-09-01T11:35:18.997Z,2.67
2022-09-01T11:37:00.227Z,3.07
2022-09-01T11:38:43.321Z,2.70
2022-09-01T11:40:24.044Z,3.03
2022-09-01T11:42:04.281Z,2.90
2022-09-01T11:43:37.805Z,3.23
2022-09-01T11:45:21.200Z,3.10
2022-09-01T11:47:01.209Z,3.30
2022-09-01T11:48:34.181Z,2.67
2022-09-01T11:50:09.401Z,2.97
2022-09-01T11:51:46.515Z,3.20
2022-09-01T11:53:24.606Z,3.07
2022-09-01T11:54:59.056Z,3.10
2022-09-01T11:56:33.149Z,2.90
2022-09-01T11:58:07.463Z,2.80
2022-09-01T11:59:40.253Z,3.10
2022-09-01T12:01:16.423Z,3.00
2022-09-01T12:02:52.208Z,2.83
2022-09-01T12:04:27.499Z,3.00
2022-09-01T12:06:02.800Z,2.70
2022-09-01T12:07:41.570Z,2.90
2022-09-01T12:09:14.350Z,3.10
2022-09-01T12:10:48.357Z,3.20
2022-09-01T12:12:35.216Z,2.90
2022-09-01T12:14:11.541Z,2.63
2022-09-01T12:16:06.972Z,2.90
2022-09-01T12:17:37.622Z,2.60
2022-09-01T12:19:24.497Z,2.73
2022-09-01T12:20:58.934Z,2.70
2022-09-01T12:22:31.779Z,2.60
2022-09-01T12:24:18.527Z,2.70
2022-09-01T12:25:51.724Z,2.93
2022-09-01T12:27:24.492Z,3.03
2022-09-01T12:28:58.986Z,2.63
2022-09-01T12:30:35.218Z,3.00
2022-09-01T12:32:08.247Z,2.80
2022-09-01T12:33:43.362Z,2.90
2022-09-01T12:35:19.271Z,3.10
2022-09-01T12:37:04.000Z,2.70
2022-09-01T12:38:37.024Z,2.83
2022-09-01T12:40:27.214Z,2.60
2022-09-01T12:42:08.849Z,2.57
2022-09-01T12:43:42.476Z,2.43
2022-09-01T12:45:37.685Z,2.80
2022-09-01T12:47:13.439Z,2.57
2022-09-01T12:48:46.597Z,2.77
2022-09-01T12:50:38.085Z,2.60
2022-09-01T12:52:21.956Z,2.70
2022-09-01T12:53:58.721Z,2.63
2022-09-01T12:55:48.588Z,2.47
2022-09-01T12:57:28.644Z,2.53
2022-09-01T12:59:14.118Z,2.30
2022-09-01T13:00:59.367Z,2.40
2022-09-01T13:02:36.715Z,2.70
2022-09-01T13:04:29.984Z,2.60
2022-09-01T13:06:04.580Z,2.50
2022-09-01T13:07:37.306Z,2.20
2022-09-01T13:09:10.202Z,2.43
2022-09-01T13:10:45.234Z,2.50
2022-09-01T13:12:20.518Z,2.37
2022-09-01T13:13:53.249Z,2.40
2022-09-01T13:15:26.622Z,2.37
2022-09-01T13:17:00.839Z,2.50
2022-09-01T13:19:09.955Z,2.47
2022-09-01T13:20:26.349Z,2.50
2022-09-01T13:21:59.317Z,2.70
2022-09-01T13:23:32.489Z,2.50
2022-09-01T13:25:06.411Z,2.50
2022-09-01T13:26:39.186Z,2.60
2022-09-01T13:28:12.175Z,2.40
2022-09-01T13:29:46.334Z,2.57
2022-09-01T13:31:35.668Z,2.33
2022-09-01T13:33:20.309Z,2.70
2022-09-01T13:34:55.135Z,2.60
2022-09-01T13:36:46.356Z,2.43
2022-09-01T13:38:21.143Z,2.50
2022-09-01T13:39:53.889Z,2.57
2022-09-01T13:41:26.838Z,2.70
2022-09-01T13:42:59.561Z,2.33
2022-09-01T13:44:32.269Z,2.40
2022-09-01T13:46:05.281Z,2.27
2022-09-01T13:48:15.085Z,2.70
2022-09-01T13:51:29.417Z,2.60
2022-09-01T13:53:02.221Z,2.50
2022-09-01T13:54:34.932Z,2.23
2022-09-01T13:56:07.945Z,2.30
2022-09-01T13:57:41.308Z,2.63
2022-09-01T13:59:14.057Z,2.27
2022-09-01T14:00:48.341Z,2.37
2022-09-01T14:02:21.520Z,2.40
2022-09-01T14:03:58.289Z,2.40
2022-09-01T14:05:37.680Z,2.60
2022-09-01T14:07:10.394Z,2.80
2022-09-01T14:08:43.197Z,2.50
2022-09-01T14:10:16.380Z,2.47
2022-09-01T14:11:49.173Z,2.77
2022-09-01T14:13:23.974Z,2.73
2022-09-01T14:15:16.084Z,2.50
2022-09-01T14:16:49.656Z,2.47
2022-09-01T14:18:22.710Z,2.70
2022-09-01T14:19:57.262Z,2.30
2022-09-01T14:21:31.368Z,2.47
2022-09-01T14:23:06.430Z,2.47
2022-09-01T14:24:40.958Z,2.57
2022-09-01T14:26:15.895Z,2.37
2022-09-01T14:27:49.605Z,2.40
2022-09-01T14:29:22.389Z,2.50
2022-09-01T14:32:26.800Z,2.70
2022-09-01T14:33:59.604Z,2.50
2022-09-01T14:35:34.310Z,2.57
2022-09-01T14:37:08.435Z,2.80
2022-09-01T14:38:41.148Z,2.33
2022-09-01T14:40:16.951Z,2.37
2022-09-01T14:41:49.948Z,2.53
2022-09-01T14:43:22.873Z,2.47
2022-09-01T14:44:56.259Z,2.27
2022-09-01T14:46:30.410Z,2.60
2022-09-01T14:48:03.356Z,2.60
2022-09-01T14:49:36.985Z,2.60
2022-09-01T14:51:10.716Z,2.60
2022-09-01T14:52:44.881Z,2.67
2022-09-01T14:54:17.640Z,2.57
2022-09-01T14:55:55.549Z,2.50
2022-09-01T14:57:31.019Z,2.67
2022-09-01T14:59:10.854Z,2.17
2022-09-01T15:00:45.061Z,2.40
2022-09-01T15:02:17.841Z,2.50
2022-09-01T15:03:50.550Z,2.30
2022-09-01T15:05:23.810Z,2.50
2022-09-01T15:06:56.963Z,2.30
2022-09-01T15:08:31.037Z,2.27
2022-09-01T15:10:04.630Z,2.30
2022-09-01T15:11:44.027Z,2.43
2022-09-01T15:13:18.389Z,2.27
2022-09-01T15:14:51.270Z,2.40
2022-09-01T15:16:26.484Z,2.60
2022-09-01T15:18:01.541Z,2.50
2022-09-01T15:19:34.269Z,2.40
2022-09-01T15:21:06.397Z,2.50
2022-09-01T15:22:39.096Z,2.40
2022-09-01T15:24:13.715Z,2.30
2022-09-01T15:25:45.797Z,2.47
2022-09-01T15:27:18.907Z,2.30
2022-09-01T15:28:52.054Z,2.33
2022-09-01T15:30:24.900Z,2.43
2022-09-01T15:31:57.638Z,2.27
2022-09-01T15:33:30.383Z,2.27
2022-09-01T15:35:03.084Z,2.50
2022-09-01T15:36:39.847Z,2.53
2022-09-01T15:38:15.770Z,2.50
2022-09-01T15:39:52.056Z,2.30
2022-09-01T15:41:26.931Z,2.30
2022-09-01T15:43:00.028Z,2.50
2022-09-01T15:44:31.811Z,2.57
2022-09-01T15:46:05.725Z,2.17
2022-09-01T15:47:41.318Z,2.40
2022-09-01T15:49:18.438Z,2.47
2022-09-01T15:50:51.245Z,2.13
2022-09-01T15:52:24.650Z,2.40
2022-09-01T15:53:59.925Z,2.17
2022-09-01T15:55:44.461Z,2.50
2022-09-01T15:57:18.289Z,2.30
2022-09-01T15:59:01.487Z,2.30
2022-09-01T16:00:34.891Z,2.20
2022-09-01T16:02:09.682Z,2.50
2022-09-01T16:03:42.449Z,2.37
2022-09-01T16:05:15.661Z,2.20
2022-09-01T16:06:49.385Z,2.53
2022-09-01T16:08:22.324Z,2.23
2022-09-01T16:09:57.942Z,2.40
2022-09-01T16:11:31.999Z,2.20
2022-09-01T16:13:04.919Z,2.40
2022-09-01T16:14:37.809Z,2.20
2022-09-01T16:16:27.121Z,2.30
2022-09-01T16:18:19.383Z,2.13
2022-09-01T16:19:57.138Z,2.27
2022-09-01T16:21:42.936Z,2.30
2022-09-01T16:23:18.140Z,2.67
2022-09-01T16:24:54.110Z,2.33
2022-09-01T16:26:26.841Z,2.80
2022-09-01T16:28:05.476Z,2.20
2022-09-01T16:29:45.415Z,2.43
2022-09-01T16:31:24.739Z,2.40
2022-09-01T16:32:59.623Z,2.43
2022-09-01T16:34:33.885Z,2.10
2022-09-01T16:36:22.204Z,2.40
2022-09-01T16:38:02.690Z,2.50
2022-09-01T16:39:41.444Z,2.20
2022-09-01T16:41:23.777Z,2.10
2022-09-01T16:43:07.562Z,2.23
2022-09-01T16:44:58.319Z,2.20
2022-09-01T16:46:34.762Z,2.47
2022-09-01T16:48:19.478Z,2.50
2022-09-01T16:50:03.808Z,2.37
2022-09-01T16:51:47.065Z,2.20
2022-09-01T16:53:31.450Z,3.00
2022-09-01T16:55:19.843Z,2.97
2022-09-01T16:56:59.498Z,2.80
2022-09-01T16:58:47.000Z,2.60
2022-09-01T17:00:22.027Z,2.30
2022-09-01T17:02:06.625Z,2.47
2022-09-01T17:03:50.337Z,2.00
2022-09-01T17:05:29.984Z,2.10
2022-09-01T17:07:10.269Z,2.30
2022-09-01T17:08:52.462Z,2.20
2022-09-01T17:10:37.084Z,2.20
2022-09-01T17:12:22.576Z,2.60
2022-09-01T17:13:58.054Z,2.40
2022-09-01T17:15:39.232Z,2.43
2022-09-01T17:17:16.555Z,2.40
2022-09-01T17:18:55.272Z,2.50
2022-09-01T17:20:31.625Z,2.27
2022-09-01T17:22:06.437Z,2.30
2022-09-01T17:23:47.128Z,1.97
2022-09-01T17:25:28.615Z,2.27
2022-09-01T17:27:07.811Z,2.00
2022-09-01T17:28:51.776Z,2.20
2022-09-01T17:30:25.869Z,2.57
2022-09-01T17:32:03.674Z,2.40
2022-09-01T17:33:50.298Z,2.20
2022-09-01T17:35:31.973Z,2.20
2022-09-01T17:37:15.612Z,2.50
2022-09-01T17:38:54.455Z,2.20
2022-09-01T17:40:34.574Z,2.33
2022-09-01T17:42:14.914Z,2.20
2022-09-01T17:43:59.953Z,2.20
2022-09-01T17:45:51.293Z,2.60
2022-09-01T17:47:37.018Z,2.47
2022-09-01T17:49:19.274Z,2.40
2022-09-01T17:51:02.705Z,2.30
2022-09-01T17:52:47.435Z,2.27
2022-09-01T17:54:35.925Z,2.23
2022-09-01T17:56:21.114Z,2.33
2022-09-01T17:57:58.835Z,2.33
2022-09-01T17:59:40.845Z,2.60
2022-09-01T18:01:25.063Z,3.00
2022-09-01T18:03:22.623Z,2.40
2022-09-01T18:05:07.464Z,2.23
2022-09-01T18:06:49.345Z,2.43
2022-09-01T18:08:38.110Z,2.40
2022-09-01T18:10:27.329Z,2.23
2022-09-01T18:12:03.548Z,2.10
2022-09-01T18:13:52.916Z,2.37
2022-09-01T18:15:27.463Z,2.07
2022-09-01T18:17:05.669Z,2.00
2022-09-01T18:18:40.596Z,2.07
2022-09-01T18:20:18.413Z,2.20
2022-09-01T18:21:55.752Z,2.20
2022-09-01T18:23:32.429Z,2.30
2022-09-01T18:25:08.434Z,2.00
2022-09-01T18:26:45.598Z,2.33
2022-09-01T18:28:18.551Z,2.10
2022-09-01T18:29:51.513Z,2.40
2022-09-01T18:31:42.962Z,2.27
2022-09-01T18:33:28.629Z,2.00
2022-09-01T18:35:26.171Z,2.10
2022-09-01T18:37:11.581Z,2.20
2022-09-01T18:38:49.198Z,2.20
2022-09-01T18:40:29.257Z,2.03
2022-09-01T18:42:11.828Z,2.03
2022-09-01T18:43:50.413Z,2.03
2022-09-01T18:45:34.701Z,2.20
2022-09-01T18:47:10.924Z,2.10
2022-09-01T18:49:04.477Z,2.30
2022-09-01T18:50:45.639Z,1.97
2022-09-01T18:52:29.450Z,2.20
2022-09-01T18:54:07.692Z,2.10
2022-09-01T18:55:49.950Z,2.03
2022-09-01T18:57:29.828Z,2.27
2022-09-01T18:59:18.693Z,2.03
2022-09-01T19:01:00.787Z,1.97
2022-09-01T19:02:49.193Z,2.00
2022-09-01T19:04:29.509Z,2.00
2022-09-01T19:06:12.548Z,2.10
2022-09-01T19:07:56.473Z,2.00
2022-09-01T19:09:32.972Z,1.90
2022-09-01T19:11:16.170Z,2.10
2022-09-01T19:13:01.484Z,1.90
2022-09-01T19:14:41.422Z,2.20
2022-09-01T19:16:25.138Z,2.10
2022-09-01T19:18:17.468Z,1.87
2022-09-01T19:19:57.817Z,2.00
2022-09-01T19:21:33.097Z,2.23
2022-09-01T19:23:11.014Z,2.10
2022-09-01T19:24:49.821Z,2.13
2022-09-01T19:26:24.977Z,2.30
2022-09-01T19:28:02.989Z,2.00
2022-09-01T19:29:43.477Z,2.20
2022-09-01T19:31:23.809Z,2.40
2022-09-01T19:32:59.999Z,2.40
2022-09-01T19:34:36.508Z,1.90
2022-09-01T19:36:14.281Z,2.10
2022-09-01T19:37:51.026Z,2.00
2022-09-01T19:39:26.808Z,2.13
2022-09-01T19:41:09.868Z,2.30
2022-09-01T19:42:49.831Z,2.30
2022-09-01T19:44:33.933Z,2.17
2022-09-01T19:46:18.498Z,2.30
2022-09-01T19:47:56.349Z,2.00
2022-09-01T19:49:37.278Z,2.30
2022-09-01T19:51:15.957Z,2.30
2022-09-01T19:52:56.599Z,2.17
2022-09-01T19:54:39.255Z,2.00
2022-09-01T19:56:17.173Z,2.10
2022-09-01T19:57:56.269Z,2.30
2022-09-01T19:59:40.822Z,2.40
2022-09-01T20:01:18.802Z,2.17
2022-09-01T20:03:00.958Z,2.13
2022-09-01T20:04:41.992Z,2.00
2022-09-01T20:06:25.442Z,2.07
2022-09-01T20:08:02.324Z,2.20
2022-09-01T20:09:40.627Z,2.50
2022-09-01T20:11:20.329Z,2.20
2022-09-01T20:13:05.861Z,2.27
2022-09-01T20:15:01.643Z,2.30
2022-09-01T20:16:40.087Z,2.30
2022-09-01T20:18:21.981Z,2.27
2022-09-01T20:19:59.059Z,2.20
2022-09-01T20:21:39.984Z,2.40
2022-09-01T20:23:17.881Z,2.10
2022-09-01T20:24:57.275Z,2.20
2022-09-01T20:26:36.127Z,2.30
2022-09-01T20:28:20.823Z,2.40
2022-09-01T20:30:00.061Z,2.50
2022-09-01T20:31:36.782Z,2.30
2022-09-01T20:33:15.132Z,2.30
2022-09-01T20:34:54.342Z,2.80
2022-09-01T20:36:34.889Z,2.20
2022-09-01T20:38:33.404Z,2.37
2022-09-01T20:40:08.807Z,2.30
2022-09-01T20:41:48.123Z,2.33
2022-09-01T20:43:26.021Z,2.20
2022-09-01T20:45:00.247Z,2.50
2022-09-01T20:46:33.659Z,2.20
2022-09-01T20:48:08.834Z,2.40
2022-09-01T20:49:41.621Z,2.60
2022-09-01T20:51:19.171Z,2.40
2022-09-01T20:53:03.884Z,2.33
2022-09-01T20:54:45.237Z,2.53
2022-09-01T20:56:25.765Z,2.30
2022-09-01T20:58:07.009Z,2.40
2022-09-01T20:59:45.922Z,2.40
2022-09-01T21:01:26.766Z,2.60
2022-09-01T21:03:06.774Z,2.33
2022-09-01T21:04:53.340Z,2.40
2022-09-01T21:06:35.433Z,2.50
2022-09-01T21:08:33.889Z,2.30
2022-09-01T21:10:16.244Z,2.60
2022-09-01T21:11:53.805Z,2.33
2022-09-01T21:13:42.305Z,2.50
2022-09-01T21:15:34.753Z,2.50
2022-09-01T21:17:17.194Z,2.20
2022-09-01T21:19:01.065Z,2.47
2022-09-01T21:20:47.390Z,2.43
2022-09-01T21:22:22.442Z,2.80
2022-09-01T21:23:54.410Z,2.47
2022-09-01T21:25:28.513Z,2.40
2022-09-01T21:27:05.009Z,2.33
2022-09-01T21:28:38.201Z,2.40
2022-09-01T21:30:13.950Z,2.50
2022-09-01T21:31:47.573Z,2.67
2022-09-01T21:33:20.480Z,2.67
2022-09-01T21:34:54.057Z,2.70
2022-09-01T21:36:26.840Z,2.40
2022-09-01T21:37:59.557Z,2.53
2022-09-01T21:39:32.978Z,2.53
2022-09-01T21:41:13.073Z,2.80
2022-09-01T21:42:50.308Z,2.67
2022-09-01T21:44:23.112Z,2.60
2022-09-01T21:45:55.987Z,2.60
2022-09-01T21:47:28.304Z,2.63
2022-09-01T21:49:01.045Z,2.77
2022-09-01T21:50:34.179Z,2.20
2022-09-01T21:52:07.501Z,2.60
2022-09-01T21:53:40.384Z,2.57
2022-09-01T21:55:13.357Z,2.77
2022-09-01T21:56:47.702Z,2.33
2022-09-01T21:58:20.407Z,2.30
2022-09-01T21:59:53.129Z,2.47
2022-09-01T22:01:26.838Z,2.30
2022-09-01T22:03:01.657Z,2.40
2022-09-01T22:04:36.912Z,2.40
2022-09-01T22:06:12.415Z,2.60
2022-09-01T22:07:47.362Z,2.60
2022-09-01T22:09:21.777Z,2.67
2022-09-01T22:10:56.260Z,2.70
2022-09-01T22:12:30.324Z,2.50
2022-09-01T22:14:03.640Z,2.70
2022-09-01T22:15:42.567Z,2.70
2022-09-01T22:17:15.301Z,2.80
2022-09-01T22:18:48.564Z,2.70